createdAt,value
2022-07-26T00:00:14.250Z,34.72
2022-07-26T00:02:18.500Z,35.77
2022-07-26T00:04:20.233Z,34.13
2022-07-26T00:06:21.820Z,33.91
2022-07-26T00:08:23.419Z,34.43
2022-07-26T00:10:25.253Z,34.26
2022-07-26T00:12:26.906Z,33.80
2022-07-26T00:14:29.906Z,35.42
2022-07-26T00:16:31.547Z,34.15
2022-07-26T00:18:33.236Z,34.85
2022-07-26T00:20:34.827Z,34.71
2022-07-26T00:22:37.042Z,33.95
2022-07-26T00:24:38.632Z,34.13
2022-07-26T00:26:40.205Z,34.73
2022-07-26T00:28:41.942Z,34.52
2022-07-26T00:30:44.889Z,34.52
2022-07-26T00:32:46.850Z,34.79
2022-07-26T00:34:48.366Z,34.87
2022-07-26T00:36:49.966Z,34.52
2022-07-26T00:38:51.484Z,34.28
2022-07-26T00:40:53.059Z,34.99
2022-07-26T00:42:54.758Z,35.75
2022-07-26T00:44:56.316Z,34.83
2022-07-26T00:46:59.221Z,34.90
2022-07-26T00:49:00.887Z,35.36
2022-07-26T00:51:02.498Z,35.54
2022-07-26T00:53:04.106Z,34.77
2022-07-26T00:55:07.249Z,35.00
2022-07-26T00:57:08.811Z,36.49
2022-07-26T00:59:10.714Z,35.33
2022-07-26T01:01:12.704Z,35.45
2022-07-26T01:03:15.650Z,35.88
2022-07-26T01:05:17.332Z,35.46
2022-07-26T01:07:19.202Z,35.35
2022-07-26T01:09:21.092Z,35.03
2022-07-26T01:11:22.907Z,35.14
2022-07-26T01:13:24.558Z,35.40
2022-07-26T01:15:26.125Z,35.94
2022-07-26T01:17:27.789Z,35.42
2022-07-26T01:19:30.884Z,35.88
2022-07-26T01:21:33.842Z,36.10
2022-07-26T01:23:35.575Z,35.06
2022-07-26T01:25:42.427Z,35.60
2022-07-26T01:27:45.317Z,36.30
2022-07-26T01:29:46.870Z,35.96
2022-07-26T01:31:49.030Z,35.07
2022-07-26T01:33:51.371Z,36.19
2022-07-26T01:35:52.945Z,35.35
2022-07-26T01:37:55.937Z,37.19
2022-07-26T01:39:57.527Z,35.36
2022-07-26T01:41:59.094Z,36.48
2022-07-26T01:44:01.137Z,36.50
2022-07-26T01:46:02.880Z,36.96
2022-07-26T01:48:05.279Z,36.80
2022-07-26T01:50:08.802Z,36.64
2022-07-26T01:52:10.374Z,36.59
2022-07-26T01:54:13.331Z,37.13
2022-07-26T01:56:15.054Z,36.90
2022-07-26T01:58:16.630Z,36.53
2022-07-26T02:00:18.450Z,37.12
2022-07-26T02:02:23.867Z,36.54
2022-07-26T02:04:25.501Z,36.96
2022-07-26T02:06:27.028Z,37.33
2022-07-26T02:08:29.497Z,37.17
2022-07-26T02:10:33.323Z,38.87
2022-07-26T02:12:35.816Z,38.02
2022-07-26T02:14:37.486Z,37.57
2022-07-26T02:16:39.040Z,36.54
2022-07-26T02:18:41.375Z,36.71
2022-07-26T02:20:42.945Z,36.82
2022-07-26T02:22:44.458Z,37.08
2022-07-26T02:24:46.501Z,37.94
2022-07-26T02:26:49.609Z,38.19
2022-07-26T02:28:51.153Z,37.72
2022-07-26T02:30:52.767Z,37.78
2022-07-26T02:32:54.899Z,36.57
2022-07-26T02:34:56.511Z,36.61
2022-07-26T02:36:58.263Z,37.15
2022-07-26T02:38:59.865Z,37.78
2022-07-26T02:41:01.423Z,37.40
2022-07-26T02:43:04.835Z,37.74
2022-07-26T02:45:07.394Z,37.41
2022-07-26T02:47:09.050Z,38.46
2022-07-26T02:49:14.328Z,38.39
2022-07-26T02:51:16.342Z,37.86
2022-07-26T02:53:17.935Z,38.23
2022-07-26T02:55:21.023Z,38.44
2022-07-26T02:57:22.589Z,38.41
2022-07-26T02:59:25.506Z,38.19
2022-07-26T03:01:27.137Z,38.44
2022-07-26T03:03:28.934Z,38.53
2022-07-26T03:05:30.523Z,37.48
2022-07-26T03:07:32.297Z,38.51
2022-07-26T03:09:33.877Z,38.34
2022-07-26T03:11:35.430Z,38.86
2022-07-26T03:13:37.002Z,38.55
2022-07-26T03:15:40.049Z,38.23
2022-07-26T03:17:42.319Z,38.36
2022-07-26T03:19:43.945Z,38.24
2022-07-26T03:21:46.554Z,38.18
2022-07-26T03:23:48.251Z,37.57
2022-07-26T03:25:49.989Z,38.32
2022-07-26T03:27:54.459Z,38.30
2022-07-26T03:29:57.850Z,38.27
2022-07-26T03:32:00.776Z,38.09
2022-07-26T03:34:04.048Z,38.84
2022-07-26T03:36:05.979Z,39.11
2022-07-26T03:38:13.246Z,39.77
2022-07-26T03:40:15.917Z,39.43
2022-07-26T03:42:17.515Z,40.89
2022-07-26T03:44:19.080Z,39.69
2022-07-26T03:46:20.724Z,40.22
2022-07-26T03:48:23.658Z,39.91
2022-07-26T03:50:25.247Z,40.22
2022-07-26T03:52:26.835Z,40.90
2022-07-26T03:54:28.370Z,40.79
2022-07-26T03:56:30.003Z,40.47
2022-07-26T03:58:31.693Z,39.92
2022-07-26T04:00:33.273Z,40.50
2022-07-26T04:02:34.932Z,40.60
2022-07-26T04:04:37.932Z,40.73
2022-07-26T04:06:41.838Z,39.79
2022-07-26T04:08:44.953Z,40.67
2022-07-26T04:10:46.680Z,41.00
2022-07-26T04:12:48.238Z,41.69
2022-07-26T04:14:50.007Z,42.20
2022-07-26T04:16:51.661Z,41.04
2022-07-26T04:18:53.902Z,40.95
2022-07-26T04:20:57.033Z,39.94
2022-07-26T04:22:58.654Z,40.77
2022-07-26T04:25:00.277Z,40.10
2022-07-26T04:27:01.862Z,41.12
2022-07-26T04:29:03.827Z,41.66
2022-07-26T04:31:06.644Z,41.48
2022-07-26T04:33:08.423Z,40.96
2022-07-26T04:35:10.025Z,40.92
2022-07-26T04:37:12.950Z,41.98
2022-07-26T04:39:14.588Z,42.63
2022-07-26T04:41:16.173Z,42.48
2022-07-26T04:43:18.038Z,42.55
2022-07-26T04:45:20.972Z,41.50
2022-07-26T04:47:25.354Z,42.90
2022-07-26T04:49:27.085Z,40.71
2022-07-26T04:51:28.663Z,41.43
2022-07-26T04:53:31.597Z,41.93
2022-07-26T04:55:33.155Z,40.82
2022-07-26T04:57:34.894Z,40.34
2022-07-26T04:59:37.697Z,40.13
2022-07-26T05:01:39.377Z,41.45
2022-07-26T05:03:40.946Z,40.75
2022-07-26T05:05:42.553Z,40.81
2022-07-26T05:07:46.067Z,39.79
2022-07-26T05:09:48.958Z,39.89
2022-07-26T05:11:50.941Z,38.96
2022-07-26T05:13:52.506Z,38.42
2022-07-26T05:15:54.186Z,38.39
2022-07-26T05:17:55.850Z,37.88
2022-07-26T05:20:01.299Z,37.97
2022-07-26T05:22:04.688Z,37.65
2022-07-26T05:24:07.942Z,37.53
2022-07-26T05:26:12.273Z,37.55
2022-07-26T05:28:13.889Z,37.33
2022-07-26T05:30:15.506Z,37.05
2022-07-26T05:32:17.089Z,37.53
2022-07-26T05:34:18.717Z,37.29
2022-07-26T05:36:20.622Z,37.25
2022-07-26T05:38:37.640Z,37.18
2022-07-26T05:40:39.238Z,37.42
2022-07-26T05:42:42.287Z,37.22
2022-07-26T05:44:43.907Z,37.12
2022-07-26T05:46:46.125Z,36.76
2022-07-26T05:48:47.782Z,36.94
2022-07-26T05:50:49.915Z,36.95
2022-07-26T05:52:51.531Z,37.06
2022-07-26T05:54:53.192Z,36.84
2022-07-26T05:56:54.737Z,36.75
2022-07-26T05:58:57.635Z,36.77
2022-07-26T06:00:59.285Z,36.58
2022-07-26T06:03:00.880Z,36.70
2022-07-26T06:05:02.425Z,36.56
2022-07-26T06:07:04.074Z,36.24
2022-07-26T06:09:05.706Z,36.63
2022-07-26T06:11:07.324Z,35.99
2022-07-26T06:13:09.438Z,36.31
2022-07-26T06:15:15.680Z,36.54
2022-07-26T06:17:17.776Z,36.46
2022-07-26T06:19:19.385Z,36.59
2022-07-26T06:21:21.046Z,36.63
2022-07-26T06:23:30.959Z,36.19
2022-07-26T06:25:36.911Z,35.96
2022-07-26T06:27:38.640Z,36.60
2022-07-26T06:29:40.244Z,36.45
2022-07-26T06:31:43.225Z,36.53
2022-07-26T06:33:44.846Z,37.27
2022-07-26T06:35:46.426Z,36.66
2022-07-26T06:37:48.127Z,36.06
2022-07-26T06:39:49.687Z,36.22
2022-07-26T06:41:51.341Z,36.33
2022-07-26T06:43:52.983Z,36.23
2022-07-26T06:45:54.628Z,35.76
2022-07-26T06:47:57.637Z,35.77
2022-07-26T06:49:59.281Z,36.23
2022-07-26T06:52:00.918Z,35.75
2022-07-26T06:54:02.539Z,35.90
2022-07-26T06:56:04.899Z,35.57
2022-07-26T06:58:06.558Z,35.74
2022-07-26T07:00:09.380Z,35.61
2022-07-26T07:02:11.041Z,35.20
2022-07-26T07:04:14.024Z,35.04
2022-07-26T07:06:15.653Z,35.06
2022-07-26T07:08:17.332Z,35.21
2022-07-26T07:10:19.596Z,34.85
2022-07-26T07:12:25.406Z,34.62
2022-07-26T07:14:27.086Z,35.10
2022-07-26T07:16:29.001Z,35.17
2022-07-26T07:18:30.594Z,35.16
2022-07-26T07:20:33.689Z,35.10
2022-07-26T07:22:35.259Z,34.87
2022-07-26T07:24:37.173Z,36.78
2022-07-26T07:26:39.569Z,37.47
2022-07-26T07:28:41.171Z,37.44
2022-07-26T07:30:42.887Z,36.21
2022-07-26T07:32:45.110Z,38.39
2022-07-26T07:34:47.555Z,39.81
2022-07-26T07:36:51.247Z,38.08
2022-07-26T07:38:52.867Z,38.64
2022-07-26T07:40:54.486Z,37.81
2022-07-26T07:42:56.144Z,36.79
2022-07-26T07:44:57.799Z,37.52
2022-07-26T07:46:59.420Z,34.48
2022-07-26T07:49:01.112Z,31.78
2022-07-26T07:51:03.092Z,32.22
2022-07-26T07:53:06.129Z,37.77
2022-07-26T07:55:40.508Z,37.96
2022-07-26T07:57:30.777Z,35.90
2022-07-26T07:59:33.755Z,38.66
2022-07-26T08:01:41.087Z,38.29
2022-07-26T08:03:42.977Z,38.53
2022-07-26T08:05:51.850Z,38.83
2022-07-26T08:07:53.450Z,37.65
2022-07-26T08:09:56.650Z,37.56
2022-07-26T08:11:58.531Z,38.51
2022-07-26T08:14:00.498Z,37.04
2022-07-26T08:16:02.179Z,37.82
2022-07-26T08:18:04.538Z,38.16
2022-07-26T08:20:13.754Z,34.80
2022-07-26T08:22:17.845Z,36.53
2022-07-26T08:24:22.281Z,31.91
2022-07-26T08:26:25.403Z,32.83
2022-07-26T08:28:47.017Z,35.32
2022-07-26T08:30:49.240Z,33.15
2022-07-26T08:32:50.807Z,36.82
2022-07-26T08:34:52.437Z,34.37
2022-07-26T08:37:15.524Z,34.10
2022-07-26T08:39:15.633Z,35.51
2022-07-26T08:41:17.784Z,36.95
2022-07-26T08:43:21.114Z,34.43
2022-07-26T08:45:23.673Z,33.98
2022-07-26T08:47:37.637Z,36.69
2022-07-26T08:49:42.629Z,36.53
2022-07-26T08:51:44.958Z,36.56
2022-07-26T08:53:47.467Z,36.08
2022-07-26T08:56:07.219Z,34.03
2022-07-26T08:58:09.323Z,32.11
2022-07-26T09:00:18.286Z,32.05
2022-07-26T09:02:19.904Z,35.89
2022-07-26T09:04:31.605Z,34.59
2022-07-26T09:06:34.448Z,37.00
2022-07-26T09:08:36.224Z,34.53
2022-07-26T09:10:39.357Z,36.31
2022-07-26T09:12:41.681Z,36.92
2022-07-26T09:14:43.595Z,35.70
2022-07-26T09:16:58.775Z,32.87
2022-07-26T09:19:15.623Z,35.98
2022-07-26T09:21:28.019Z,34.28
2022-07-26T09:23:39.106Z,36.46
2022-07-26T09:25:42.025Z,36.38
2022-07-26T09:27:43.636Z,34.42
2022-07-26T09:29:47.708Z,33.31
2022-07-26T09:31:49.391Z,33.63
2022-07-26T09:33:52.423Z,36.58
2022-07-26T09:36:02.115Z,36.76
2022-07-26T09:38:13.097Z,36.78
2022-07-26T09:40:16.585Z,32.71
2022-07-26T09:42:28.666Z,36.17
2022-07-26T09:44:31.092Z,36.52
2022-07-26T09:46:34.170Z,36.50
2022-07-26T09:48:52.313Z,36.28
2022-07-26T09:50:58.889Z,36.23
2022-07-26T09:53:03.775Z,34.63
2022-07-26T09:55:07.459Z,34.46
2022-07-26T09:57:09.267Z,35.35
2022-07-26T09:59:13.887Z,33.00
2022-07-26T10:01:15.538Z,35.06
2022-07-26T10:03:17.365Z,35.80
2022-07-26T10:05:19.496Z,35.45
2022-07-26T10:07:22.543Z,33.90
2022-07-26T10:09:24.717Z,34.85
2022-07-26T10:11:31.980Z,34.61
2022-07-26T10:13:33.771Z,33.69
2022-07-26T10:15:37.587Z,36.60
2022-07-26T10:17:41.200Z,36.33
2022-07-26T10:19:45.823Z,35.33
2022-07-26T10:21:49.314Z,36.51
2022-07-26T10:23:53.441Z,35.99
2022-07-26T10:25:55.105Z,34.86
2022-07-26T10:28:02.040Z,35.60
2022-07-26T10:30:23.810Z,35.89
2022-07-26T10:32:25.574Z,35.52
2022-07-26T10:34:30.869Z,34.14
2022-07-26T10:36:35.544Z,34.91
2022-07-26T10:38:37.665Z,33.80
2022-07-26T10:40:56.428Z,35.38
2022-07-26T10:43:30.127Z,35.29
2022-07-26T10:45:29.537Z,34.87
2022-07-26T10:47:35.256Z,34.34
2022-07-26T10:49:38.978Z,34.89
2022-07-26T10:51:41.409Z,35.13
2022-07-26T10:53:42.992Z,35.14
2022-07-26T10:55:47.686Z,30.31
2022-07-26T10:57:49.367Z,30.59
2022-07-26T10:59:56.281Z,34.20
2022-07-26T11:01:58.629Z,33.96
2022-07-26T11:04:00.583Z,35.07
2022-07-26T11:06:09.993Z,34.69
2022-07-26T11:08:11.576Z,34.96
2022-07-26T11:10:13.154Z,30.30
2022-07-26T11:12:17.153Z,29.66
2022-07-26T11:14:18.813Z,29.19
2022-07-26T11:16:20.969Z,32.13
2022-07-26T11:18:25.296Z,32.75
2022-07-26T11:20:29.821Z,32.38
2022-07-26T11:22:32.513Z,31.66
2022-07-26T11:24:39.657Z,34.11
2022-07-26T11:26:42.496Z,35.14
2022-07-26T11:28:54.479Z,34.89
2022-07-26T11:30:57.982Z,30.15
2022-07-26T11:32:59.722Z,33.84
2022-07-26T11:35:03.604Z,34.02
2022-07-26T11:37:05.864Z,34.44
2022-07-26T11:39:09.527Z,33.59
2022-07-26T11:41:11.644Z,34.08
2022-07-26T11:43:20.763Z,34.46
2022-07-26T11:45:23.813Z,34.16
2022-07-26T11:47:26.568Z,32.83
2022-07-26T11:51:53.658Z,32.39
2022-07-26T11:53:55.367Z,32.18
2022-07-26T11:56:10.232Z,32.32
2022-07-26T11:58:11.976Z,32.71
2022-07-26T12:00:15.362Z,31.48
2022-07-26T12:02:20.894Z,29.48
2022-07-26T12:04:25.255Z,31.28
2022-07-26T12:06:27.173Z,31.28
2022-07-26T12:08:39.089Z,32.56
2022-07-26T12:10:40.706Z,32.64
2022-07-26T12:12:42.633Z,32.88
2022-07-26T12:14:54.862Z,34.67
2022-07-26T12:16:57.013Z,35.49
2022-07-26T12:19:00.099Z,35.92
2022-07-26T12:21:08.470Z,32.74
2022-07-26T12:23:10.846Z,36.30
2022-07-26T12:25:12.433Z,36.10
2022-07-26T12:27:17.128Z,35.94
2022-07-26T12:29:27.185Z,35.99
2022-07-26T12:31:30.822Z,36.09
2022-07-26T12:33:32.668Z,31.28
2022-07-26T12:35:35.939Z,35.87
2022-07-26T12:37:48.911Z,36.59
2022-07-26T12:40:11.284Z,30.86
2022-07-26T12:42:34.285Z,34.53
2022-07-26T12:44:36.356Z,35.09
2022-07-26T12:46:38.093Z,30.11
2022-07-26T12:48:40.773Z,31.03
2022-07-26T12:50:43.774Z,32.07
2022-07-26T12:52:45.922Z,34.64
2022-07-26T12:54:48.813Z,37.40
2022-07-26T12:56:50.507Z,37.15
2022-07-26T12:58:52.185Z,37.49
2022-07-26T13:00:53.854Z,33.89
2022-07-26T13:02:55.452Z,33.56
2022-07-26T13:05:00.350Z,38.63
2022-07-26T13:07:04.262Z,36.30
2022-07-26T13:09:05.920Z,34.44
2022-07-26T13:11:07.645Z,37.89
2022-07-26T13:13:09.371Z,36.35
2022-07-26T13:15:13.858Z,37.84
2022-07-26T13:17:15.961Z,37.96
2022-07-26T13:19:17.849Z,37.67
2022-07-26T13:21:19.462Z,32.79
2022-07-26T13:23:26.646Z,37.76
2022-07-26T13:25:29.034Z,33.49
2022-07-26T13:27:39.071Z,35.77
2022-07-26T13:29:43.187Z,38.61
2022-07-26T13:31:44.832Z,38.17
2022-07-26T13:33:46.723Z,33.94
2022-07-26T13:35:50.307Z,37.91
2022-07-26T13:37:52.084Z,39.01
2022-07-26T13:39:55.093Z,30.23
2022-07-26T13:41:56.720Z,38.23
2022-07-26T13:43:58.345Z,38.42
2022-07-26T13:46:00.007Z,37.80
2022-07-26T13:48:01.654Z,38.42
2022-07-26T13:50:03.504Z,37.35
2022-07-26T13:52:05.601Z,38.21
2022-07-26T13:54:07.370Z,33.02
2022-07-26T13:56:10.495Z,37.64
2022-07-26T13:58:12.081Z,36.77
2022-07-26T14:00:14.538Z,38.02
2022-07-26T14:02:16.268Z,38.43
2022-07-26T14:04:19.039Z,34.31
2022-07-26T14:06:20.627Z,37.42
2022-07-26T14:08:22.217Z,36.47
2022-07-26T14:10:25.042Z,32.95
2022-07-26T14:12:28.155Z,38.26
2022-07-26T14:14:29.786Z,38.09
2022-07-26T14:16:32.191Z,38.34
2022-07-26T14:18:34.037Z,38.37
2022-07-26T14:20:36.054Z,38.04
2022-07-26T14:22:37.646Z,37.99
2022-07-26T14:24:39.305Z,37.44
2022-07-26T14:26:40.924Z,38.06
2022-07-26T14:28:44.775Z,38.37
2022-07-26T14:30:46.573Z,35.38
2022-07-26T14:32:48.671Z,38.20
2022-07-26T14:34:50.771Z,38.10
2022-07-26T14:36:52.465Z,36.65
2022-07-26T14:38:54.137Z,36.64
2022-07-26T14:40:56.032Z,36.02
2022-07-26T14:43:00.089Z,37.13
2022-07-26T14:45:03.317Z,31.86
2022-07-26T14:47:05.099Z,28.24
2022-07-26T14:49:09.005Z,27.43
2022-07-26T14:51:10.669Z,30.06
2022-07-26T14:53:14.228Z,28.00
2022-07-26T14:55:20.368Z,28.13
2022-07-26T14:57:26.206Z,36.20
2022-07-26T14:59:28.060Z,37.05
2022-07-26T15:01:31.324Z,36.45
2022-07-26T15:03:33.758Z,30.50
2022-07-26T15:05:35.595Z,28.32
2022-07-26T15:07:37.237Z,29.35
2022-07-26T15:09:38.807Z,29.28
2022-07-26T15:11:40.558Z,28.99
2022-07-26T15:13:42.310Z,30.24
2022-07-26T15:15:43.975Z,28.66
2022-07-26T15:17:47.061Z,30.40
2022-07-26T15:19:48.760Z,36.31
2022-07-26T15:21:53.013Z,30.32
2022-07-26T15:23:54.671Z,32.39
2022-07-26T15:25:56.305Z,34.25
2022-07-26T15:27:57.929Z,35.59
2022-07-26T15:30:04.187Z,36.67
2022-07-26T15:32:08.606Z,37.08
2022-07-26T15:34:11.923Z,36.91
2022-07-26T15:36:13.856Z,36.75
2022-07-26T15:38:15.560Z,37.04
2022-07-26T15:40:17.169Z,36.71
2022-07-26T15:42:19.165Z,33.95
2022-07-26T15:44:25.449Z,36.01
2022-07-26T15:46:27.268Z,34.56
2022-07-26T15:48:28.935Z,33.25
2022-07-26T15:50:32.021Z,29.89
2022-07-26T15:52:36.244Z,30.85
2022-07-26T15:54:38.523Z,32.00
2022-07-26T15:56:40.377Z,34.45
2022-07-26T15:58:42.017Z,29.59
2022-07-26T16:00:43.872Z,31.52
2022-07-26T16:02:45.816Z,32.81
2022-07-26T16:04:47.567Z,29.04
2022-07-26T16:06:51.599Z,30.48
2022-07-26T16:09:15.376Z,29.80
2022-07-26T16:11:14.977Z,30.12
2022-07-26T16:13:16.652Z,29.10
2022-07-26T16:15:18.256Z,28.80
2022-07-26T16:17:19.825Z,32.36
2022-07-26T16:19:21.420Z,28.82
2022-07-26T16:21:22.970Z,32.95
2022-07-26T16:23:25.873Z,34.56
2022-07-26T16:25:27.550Z,32.63
2022-07-26T16:27:29.118Z,33.07
2022-07-26T16:29:30.747Z,30.31
2022-07-26T16:31:32.667Z,34.57
2022-07-26T16:33:34.502Z,32.77
2022-07-26T16:35:36.086Z,30.09
2022-07-26T16:37:37.929Z,31.70
2022-07-26T16:39:40.982Z,32.03
2022-07-26T16:41:42.813Z,34.18
2022-07-26T16:43:44.409Z,34.36
2022-07-26T16:45:46.013Z,33.79
2022-07-26T16:47:47.542Z,30.54
2022-07-26T16:49:49.299Z,34.63
2022-07-26T16:51:51.578Z,32.43
2022-07-26T16:53:53.224Z,31.93
2022-07-26T16:55:56.109Z,34.73
2022-07-26T16:57:57.729Z,29.98
2022-07-26T16:59:59.509Z,28.03
2022-07-26T17:02:01.135Z,34.45
2022-07-26T17:04:04.602Z,27.91
2022-07-26T17:06:06.793Z,28.51
2022-07-26T17:08:08.783Z,32.35
2022-07-26T17:10:10.776Z,27.64
2022-07-26T17:12:13.783Z,27.49
2022-07-26T17:14:15.407Z,30.62
2022-07-26T17:16:21.394Z,27.16
2022-07-26T17:18:26.336Z,27.75
2022-07-26T17:20:30.490Z,32.40
2022-07-26T17:22:32.181Z,26.36
2022-07-26T17:24:33.984Z,27.91
2022-07-26T17:26:36.468Z,30.28
2022-07-26T17:28:40.695Z,25.95
2022-07-26T17:30:42.597Z,26.58
2022-07-26T17:32:44.347Z,27.39
2022-07-26T17:34:46.065Z,25.99
2022-07-26T17:36:47.727Z,26.11
2022-07-26T17:38:51.736Z,25.97
2022-07-26T17:40:53.769Z,27.52
2022-07-26T17:42:55.500Z,30.66
2022-07-26T17:44:58.472Z,27.73
2022-07-26T17:47:00.204Z,28.38
2022-07-26T17:49:03.760Z,27.21
2022-07-26T17:51:09.930Z,27.38
2022-07-26T17:53:11.600Z,29.78
2022-07-26T17:55:16.014Z,28.14
2022-07-26T17:57:17.609Z,28.04
2022-07-26T17:59:21.476Z,27.08
2022-07-26T18:01:25.030Z,29.79
2022-07-26T18:03:26.747Z,29.31
2022-07-26T18:05:34.992Z,27.72
2022-07-26T18:07:39.140Z,28.32
2022-07-26T18:09:40.735Z,30.21
2022-07-26T18:11:42.447Z,32.16
2022-07-26T18:13:44.070Z,31.86
2022-07-26T18:15:45.787Z,28.51
2022-07-26T18:17:48.793Z,33.19
2022-07-26T18:19:50.429Z,30.92
2022-07-26T18:21:52.009Z,31.20
2022-07-26T18:24:15.442Z,43.86
2022-07-26T18:26:15.626Z,41.97
2022-07-26T18:28:17.902Z,40.67
2022-07-26T18:30:19.965Z,40.43
2022-07-26T18:32:21.721Z,43.92
2022-07-26T18:34:24.999Z,41.39
2022-07-26T18:36:26.689Z,40.26
2022-07-26T18:38:28.490Z,40.47
2022-07-26T18:40:30.385Z,37.10
2022-07-26T18:42:32.151Z,36.15
2022-07-26T18:44:33.847Z,36.00
2022-07-26T18:46:35.586Z,35.98
2022-07-26T18:48:37.478Z,36.54
2022-07-26T18:50:45.020Z,35.89
2022-07-26T18:52:47.129Z,35.53
2022-07-26T18:54:48.866Z,34.47
2022-07-26T18:56:50.897Z,35.40
2022-07-26T18:58:53.139Z,35.17
2022-07-26T19:00:55.001Z,35.49
2022-07-26T19:02:59.087Z,35.19
2022-07-26T19:05:01.012Z,35.51
2022-07-26T19:07:04.377Z,35.40
2022-07-26T19:09:07.137Z,33.33
2022-07-26T19:11:11.227Z,35.72
2022-07-26T19:13:13.016Z,35.67
2022-07-26T19:15:15.957Z,35.41
2022-07-26T19:17:17.705Z,34.63
2022-07-26T19:19:20.410Z,34.92
2022-07-26T19:21:22.339Z,35.61
2022-07-26T19:23:25.497Z,35.06
2022-07-26T19:25:27.537Z,36.46
2022-07-26T19:27:29.431Z,36.66
2022-07-26T19:29:31.125Z,36.32
2022-07-26T19:31:33.139Z,35.42
2022-07-26T19:33:34.855Z,36.09
2022-07-26T19:35:36.616Z,34.76
2022-07-26T19:37:38.339Z,34.28
2022-07-26T19:39:41.518Z,35.93
2022-07-26T19:41:43.122Z,35.63
2022-07-26T19:43:44.937Z,35.86
2022-07-26T19:45:46.564Z,36.10
2022-07-26T19:47:49.233Z,36.30
2022-07-26T19:49:51.025Z,35.72
2022-07-26T19:51:52.998Z,35.79
2022-07-26T19:53:54.977Z,35.61
2022-07-26T19:55:58.601Z,35.84
2022-07-26T19:58:00.778Z,35.64
2022-07-26T20:00:06.410Z,35.30
2022-07-26T20:02:08.837Z,35.86
2022-07-26T20:04:10.948Z,35.54
2022-07-26T20:06:12.664Z,35.31
2022-07-26T20:08:14.317Z,35.77
2022-07-26T20:10:15.975Z,35.42
2022-07-26T20:12:20.326Z,35.37
2022-07-26T20:14:21.965Z,35.90
2022-07-26T20:16:23.649Z,34.38
2022-07-26T20:18:25.358Z,35.15
2022-07-26T20:20:27.029Z,34.91
2022-07-26T20:22:28.685Z,34.24
2022-07-26T20:24:30.343Z,34.97
2022-07-26T20:26:32.041Z,35.12
2022-07-26T20:28:35.044Z,35.31
2022-07-26T20:30:36.788Z,35.48
2022-07-26T20:32:38.564Z,35.29
2022-07-26T20:34:40.286Z,35.43
2022-07-26T20:36:41.873Z,35.57
2022-07-26T20:38:47.018Z,35.08
2022-07-26T20:40:51.373Z,35.41
2022-07-26T20:42:53.206Z,34.85
2022-07-26T20:44:56.638Z,35.37
2022-07-26T20:46:58.285Z,35.44
2022-07-26T20:49:00.058Z,34.41
2022-07-26T20:51:01.758Z,34.27
2022-07-26T20:53:03.989Z,34.80
2022-07-26T20:55:06.858Z,35.19
2022-07-26T20:57:08.734Z,35.25
2022-07-26T20:59:10.850Z,34.97
2022-07-26T21:01:15.037Z,34.83
2022-07-26T21:03:17.035Z,35.50
2022-07-26T21:05:18.632Z,35.21
2022-07-26T21:07:20.235Z,35.23
2022-07-26T21:09:21.855Z,34.91
2022-07-26T21:11:23.444Z,35.42
2022-07-26T21:13:25.027Z,35.49
2022-07-26T21:15:26.826Z,32.96
2022-07-26T21:17:34.459Z,35.33
2022-07-26T21:19:36.764Z,35.30
2022-07-26T21:21:38.481Z,34.87
2022-07-26T21:23:40.053Z,35.37
2022-07-26T21:25:41.629Z,34.83
2022-07-26T21:27:43.287Z,35.32
2022-07-26T21:29:44.912Z,34.68
2022-07-26T21:31:46.532Z,35.78
2022-07-26T21:33:49.559Z,35.71
2022-07-26T21:35:51.194Z,35.40
2022-07-26T21:37:52.756Z,35.46
2022-07-26T21:39:54.390Z,35.12
2022-07-26T21:41:56.165Z,34.91
2022-07-26T21:43:57.755Z,35.56
2022-07-26T21:45:59.491Z,33.36
2022-07-26T21:48:01.209Z,35.94
2022-07-26T21:50:04.688Z,34.77
2022-07-26T21:52:06.380Z,34.52
2022-07-26T21:54:07.938Z,35.70
2022-07-26T21:56:09.807Z,35.98
2022-07-26T21:58:11.460Z,35.14
2022-07-26T22:00:15.489Z,35.88
2022-07-26T22:02:19.585Z,35.87
2022-07-26T22:04:23.332Z,34.59
2022-07-26T22:06:26.244Z,35.76
2022-07-26T22:08:27.889Z,35.62
2022-07-26T22:10:29.470Z,35.13
2022-07-26T22:12:31.022Z,36.04
2022-07-26T22:14:32.616Z,35.65
2022-07-26T22:16:34.376Z,35.42
2022-07-26T22:18:36.064Z,34.34
2022-07-26T22:20:38.261Z,35.35
2022-07-26T22:22:41.215Z,35.83
2022-07-26T22:24:42.783Z,35.39
2022-07-26T22:26:44.369Z,36.10
2022-07-26T22:28:45.996Z,35.76
2022-07-26T22:30:47.594Z,35.78
2022-07-26T22:32:50.108Z,36.00
2022-07-26T22:34:51.675Z,35.93
2022-07-26T22:36:53.308Z,35.29
2022-07-26T22:38:56.230Z,35.40
2022-07-26T22:40:57.833Z,35.98
2022-07-26T22:42:59.550Z,35.87
2022-07-26T22:45:01.185Z,36.05
2022-07-26T22:47:05.162Z,36.05
2022-07-26T22:49:06.792Z,35.75
2022-07-26T22:51:14.516Z,36.13
2022-07-26T22:53:16.139Z,35.58
2022-07-26T22:55:19.271Z,36.16
2022-07-26T22:57:20.983Z,35.70
2022-07-26T22:59:22.606Z,35.61
2022-07-26T23:01:24.348Z,36.83
2022-07-26T23:03:26.101Z,36.24
2022-07-26T23:05:36.073Z,36.45
2022-07-26T23:07:48.457Z,36.84
2022-07-26T23:09:50.300Z,36.71
2022-07-26T23:11:53.437Z,36.11
2022-07-26T23:13:58.653Z,36.94
2022-07-26T23:16:01.856Z,37.72
2022-07-26T23:18:03.815Z,37.02
2022-07-26T23:20:07.136Z,37.83
2022-07-26T23:22:08.773Z,37.42
2022-07-26T23:24:10.433Z,37.16
2022-07-26T23:26:12.009Z,37.71
2022-07-26T23:28:36.068Z,36.99
2022-07-26T23:30:36.542Z,37.53
2022-07-26T23:32:38.103Z,37.09
2022-07-26T23:34:39.742Z,36.71
2022-07-26T23:36:41.394Z,37.31
2022-07-26T23:38:43.017Z,37.02
2022-07-26T23:40:44.597Z,38.18
2022-07-26T23:42:46.287Z,39.24
2022-07-26T23:44:49.222Z,38.19
2022-07-26T23:46:50.819Z,38.30
2022-07-26T23:48:53.249Z,38.68
2022-07-26T23:50:54.890Z,38.62
2022-07-26T23:52:56.461Z,38.54
2022-07-26T23:54:58.054Z,37.64
2022-07-26T23:56:59.598Z,38.25
2022-07-26T23:59:01.182Z,37.80
